Tampa International Airport
KTPA : now visible

Airfield :











YOU CAN JOIN US ON...

 
LOGIN :

Register | Disclaimer

   EN    FR    IT 

 









Legend :    VFR   Marginal VFR   IFR   Intensive IFR   Very Intensive IFR
Visi :
Ceiling :
>= 8 km
>= 3000ft
5 to 8 km
1000 to 3000 ft
1500m to 5 km
500 to 1000 ft
800 to 1500m
200 to 500 ft
< 800m
< 200 ft
Symbols :   Thunderstorms  Fog  Heavy snow  Heavy precipitations  Wind > 20 kt







- Airport Elevation : 26 ft
- IATA code : TPA


KTPA - Tampa International

CURRENT METAR :
  • 210453Z VRB04KT 10SM CLR 24/18 A3013 RMK AO2 SLP203 T02390183 403110222

EXPIRED METARs :
  • 210353Z 04005KT 10SM CLR 24/18 A3014 RMK AO2 SLP206 T02440178
  • 210253Z 06008KT 10SM CLR 26/17 A3014 RMK AO2 SLP205 T02560172 51015

TAF KTPA
Valid from the 21 at 03:00 until the 22 at 06:00 UTC


210301Z 2103/2206 06008KT P6SM SKC
FM211400 07010G18KT P6SM FEW200
FM220300 06008KT P6SM SKC
No reported NOTAMs for that airfield.



MET'MAP, your aeronautical weather chart ! - Copyright ORBIFLY December 2007 - Disclaimer

ORBIFLY MET'MAP TEAM :

Programming & Development : Alexandra Zaïnal
Concept & Development : Baudouin d'Aumeries
Co-Development & Prog : Marc-Olivier Méhu
Technical & hardware support : Manuel Goepfert

Contact : metmap@orbifly.com




SOURCES & CREDITS :

   NOAA       Earth
Advisory